Time;durP1;ratioP1;P1;durP2;ratioP2;P2;SDS_P1;SDS_P2;PMS_P1;PMS_P2;Temp;Humidity;BMP_temperature;BMP_pressure;BME280_temperature;BME280_humidity;BME280_pressure;Samples;Min_cycle;Max_cycle;Signal;HPM_P1;HPM_P2
2021/08/18 00:01:11;;;;;;;11.63;6.50;;;;;;;;;;5029657;28;20045;-77
2021/08/18 00:03:36;;;;;;;10.63;6.53;;;;;;;;;;5028961;28;20048;-77
2021/08/18 00:06:02;;;;;;;10.55;6.68;;;;;;;;;;5014976;28;20033;-77
2021/08/18 00:08:27;;;;;;;9.18;6.00;;;;;;;;;;5012459;28;20072;-78
2021/08/18 00:10:53;;;;;;;7.93;6.18;;;;;;;;;;5028272;28;20037;-77
2021/08/18 00:13:22;;;;;;;7.93;6.30;;;;;;;;;;5030281;28;20037;-78
2021/08/18 00:15:49;;;;;;;8.43;5.50;;;;;;;;;;5028543;28;20408;-77
2021/08/18 00:18:14;;;;;;;11.95;6.10;;;;;;;;;;5025105;28;20116;-77
2021/08/18 00:20:40;;;;;;;10.20;5.88;;;;;;;;;;5028855;28;20160;-78
2021/08/18 00:23:06;;;;;;;10.23;5.72;;;;;;;;;;5013906;28;20026;-77
2021/08/18 00:25:32;;;;;;;9.38;5.50;;;;;;;;;;5027907;28;20045;-77
2021/08/18 00:27:58;;;;;;;10.27;5.15;;;;;;;;;;5027631;28;20389;-77
2021/08/18 00:30:23;;;;;;;7.75;5.53;;;;;;;;;;5026153;28;20040;-77
2021/08/18 00:32:49;;;;;;;9.15;5.30;;;;;;;;;;5028134;28;20034;-77
2021/08/18 00:35:14;;;;;;;8.90;5.53;;;;;;;;;;5013823;28;20017;-78
2021/08/18 00:37:40;;;;;;;9.20;5.90;;;;;;;;;;5025596;28;20038;-77
2021/08/18 00:40:06;;;;;;;9.02;5.30;;;;;;;;;;5014307;28;20088;-77
2021/08/18 00:42:33;;;;;;;9.25;5.35;;;;;;;;;;5028389;28;20064;-78
2021/08/18 00:44:58;;;;;;;8.30;4.88;;;;;;;;;;5031572;28;20021;-77
2021/08/18 00:47:24;;;;;;;9.75;5.55;;;;;;;;;;5027314;28;20021;-77
2021/08/18 00:49:49;;;;;;;9.40;5.05;;;;;;;;;;5013981;28;20045;-77
2021/08/18 00:52:15;;;;;;;7.13;5.07;;;;;;;;;;5023174;28;20433;-77
2021/08/18 00:54:40;;;;;;;7.45;5.00;;;;;;;;;;5029800;28;20059;-77
2021/08/18 00:57:06;;;;;;;9.65;5.50;;;;;;;;;;5023250;28;20492;-77
2021/08/18 00:59:32;;;;;;;9.18;5.20;;;;;;;;;;5014242;28;20054;-78
2021/08/18 01:01:58;;;;;;;8.88;5.60;;;;;;;;;;5026949;28;20115;-77
2021/08/18 01:04:24;;;;;;;6.88;5.20;;;;;;;;;;5029781;28;20056;-77
2021/08/18 01:06:49;;;;;;;8.52;5.55;;;;;;;;;;5029135;28;20191;-77
2021/08/18 01:09:19;;;;;;;7.50;5.07;;;;;;;;;;5027966;28;20108;-77
2021/08/18 01:11:47;;;;;;;8.52;5.28;;;;;;;;;;5026613;28;20174;-77
2021/08/18 01:14:13;;;;;;;8.13;5.97;;;;;;;;;;5031402;28;20042;-78
2021/08/18 01:16:41;;;;;;;10.43;5.55;;;;;;;;;;5029806;28;20511;-77
2021/08/18 01:19:08;;;;;;;8.20;5.57;;;;;;;;;;5036994;28;20041;-77
2021/08/18 01:21:35;;;;;;;8.13;5.63;;;;;;;;;;5026745;28;20037;-77
2021/08/18 01:24:02;;;;;;;7.05;5.07;;;;;;;;;;5025043;28;20358;-77
2021/08/18 01:26:29;;;;;;;9.30;6.15;;;;;;;;;;5029072;28;20021;-78
2021/08/18 01:28:56;;;;;;;8.27;5.72;;;;;;;;;;5024351;28;20026;-77
2021/08/18 01:31:21;;;;;;;9.18;5.53;;;;;;;;;;5026248;28;20030;-77
2021/08/18 01:33:47;;;;;;;7.82;4.88;;;;;;;;;;5025748;28;20036;-77
2021/08/18 01:36:12;;;;;;;6.93;5.03;;;;;;;;;;5032410;28;20087;-77
2021/08/18 01:38:38;;;;;;;11.73;5.78;;;;;;;;;;5025126;28;20112;-78
2021/08/18 01:41:03;;;;;;;9.50;6.00;;;;;;;;;;5026553;28;20383;-77
2021/08/18 01:43:29;;;;;;;9.18;5.57;;;;;;;;;;5028562;28;20045;-77
2021/08/18 01:45:55;;;;;;;9.13;5.93;;;;;;;;;;5030855;28;20029;-78
2021/08/18 01:48:23;;;;;;;11.70;6.03;;;;;;;;;;5025763;28;20057;-77
2021/08/18 01:50:51;;;;;;;8.88;6.05;;;;;;;;;;5030972;28;20083;-78
2021/08/18 01:53:19;;;;;;;8.90;6.13;;;;;;;;;;5025935;28;20087;-78
2021/08/18 01:55:45;;;;;;;9.73;6.22;;;;;;;;;;5027912;28;20535;-78
2021/08/18 01:58:10;;;;;;;8.05;5.35;;;;;;;;;;5020012;28;20033;-77
2021/08/18 02:00:36;;;;;;;10.15;5.95;;;;;;;;;;5029309;28;20057;-77
2021/08/18 02:03:01;;;;;;;9.35;5.78;;;;;;;;;;5012839;28;20029;-78
2021/08/18 02:05:27;;;;;;;9.73;5.65;;;;;;;;;;5027116;28;20058;-77
2021/08/18 02:07:53;;;;;;;8.30;5.72;;;;;;;;;;5027222;28;20084;-77
2021/08/18 02:10:19;;;;;;;8.63;5.43;;;;;;;;;;5022122;28;20457;-77
2021/08/18 02:12:45;;;;;;;8.65;5.60;;;;;;;;;;5028122;28;20037;-78
2021/08/18 02:15:14;;;;;;;9.98;5.20;;;;;;;;;;5028150;28;20081;-78
2021/08/18 02:17:40;;;;;;;8.68;5.28;;;;;;;;;;5045650;28;20060;-78
2021/08/18 02:20:09;;;;;;;10.27;5.47;;;;;;;;;;5031253;28;20060;-77
2021/08/18 02:22:34;;;;;;;8.07;5.43;;;;;;;;;;5023885;28;20053;-78
2021/08/18 02:24:59;;;;;;;10.05;5.65;;;;;;;;;;5027502;28;20057;-78
2021/08/18 02:27:25;;;;;;;6.95;5.03;;;;;;;;;;5026293;28;20450;-77
2021/08/18 02:29:50;;;;;;;10.10;5.07;;;;;;;;;;5027620;28;20034;-78
2021/08/18 02:32:16;;;;;;;9.05;4.70;;;;;;;;;;5027580;28;20366;-78
2021/08/18 02:34:41;;;;;;;9.45;5.00;;;;;;;;;;5031637;28;20041;-78
2021/08/18 02:37:07;;;;;;;10.18;5.25;;;;;;;;;;5028190;28;20068;-78
2021/08/18 02:39:32;;;;;;;6.68;4.82;;;;;;;;;;5025579;28;20428;-78
2021/08/18 02:41:58;;;;;;;14.93;6.97;;;;;;;;;;5010147;28;20036;-77
2021/08/18 02:44:24;;;;;;;8.50;5.20;;;;;;;;;;5023315;28;20057;-77
2021/08/18 02:46:49;;;;;;;12.70;4.30;;;;;;;;;;5040776;28;20087;-77
2021/08/18 02:49:17;;;;;;;7.90;4.78;;;;;;;;;;5012249;28;20091;-77
2021/08/18 02:51:43;;;;;;;5.75;4.22;;;;;;;;;;5029771;28;20060;-77
2021/08/18 02:54:08;;;;;;;9.90;4.00;;;;;;;;;;5011647;28;20032;-77
2021/08/18 02:56:33;;;;;;;7.85;4.38;;;;;;;;;;5025546;28;20039;-78
2021/08/18 02:58:59;;;;;;;7.15;3.95;;;;;;;;;;5008377;28;20041;-78
2021/08/18 03:01:24;;;;;;;5.88;3.72;;;;;;;;;;5024148;28;20037;-77
2021/08/18 03:03:50;;;;;;;8.68;4.22;;;;;;;;;;5025448;28;20025;-77
2021/08/18 03:06:15;;;;;;;7.20;4.90;;;;;;;;;;4997130;28;20140;-78
2021/08/18 03:08:40;;;;;;;8.80;4.60;;;;;;;;;;5025550;28;20156;-77
2021/08/18 03:11:06;;;;;;;9.68;4.85;;;;;;;;;;5010716;28;20040;-77
2021/08/18 03:13:31;;;;;;;6.88;4.32;;;;;;;;;;5023668;28;20053;-77
2021/08/18 03:15:57;;;;;;;6.47;4.22;;;;;;;;;;5025861;28;20040;-77
2021/08/18 03:18:22;;;;;;;8.85;4.90;;;;;;;;;;5009975;28;20044;-77
2021/08/18 03:20:47;;;;;;;8.73;5.03;;;;;;;;;;5016569;28;20470;-77
2021/08/18 03:23:13;;;;;;;9.00;5.40;;;;;;;;;;5031485;28;20079;-77
2021/08/18 03:25:38;;;;;;;10.82;4.80;;;;;;;;;;5024730;28;20120;-77
2021/08/18 03:28:05;;;;;;;13.40;5.07;;;;;;;;;;5013917;28;20041;-77
2021/08/18 03:30:30;;;;;;;6.72;4.88;;;;;;;;;;5029205;28;20072;-77
2021/08/18 03:32:56;;;;;;;8.98;5.20;;;;;;;;;;5015179;28;20060;-77
2021/08/18 03:35:21;;;;;;;7.43;5.13;;;;;;;;;;5033780;28;20112;-78
2021/08/18 03:37:46;;;;;;;6.35;4.55;;;;;;;;;;5015722;28;20464;-78
2021/08/18 03:40:13;;;;;;;6.93;4.72;;;;;;;;;;5037837;28;20025;-77
2021/08/18 03:42:38;;;;;;;8.38;4.30;;;;;;;;;;5028927;28;20055;-77
2021/08/18 03:45:04;;;;;;;8.52;4.55;;;;;;;;;;5031688;28;20025;-77
2021/08/18 03:47:29;;;;;;;6.95;4.60;;;;;;;;;;5029725;28;20061;-77
2021/08/18 03:49:55;;;;;;;6.05;4.10;;;;;;;;;;5030044;28;20087;-77
2021/08/18 03:52:20;;;;;;;9.23;4.85;;;;;;;;;;5031810;28;20084;-78
2021/08/18 03:54:45;;;;;;;7.20;4.78;;;;;;;;;;5016773;28;20084;-78
2021/08/18 03:57:11;;;;;;;7.70;4.78;;;;;;;;;;5023557;28;20063;-77
2021/08/18 03:59:36;;;;;;;8.20;4.50;;;;;;;;;;5026399;28;20111;-77
2021/08/18 04:02:02;;;;;;;5.95;3.95;;;;;;;;;;5027303;28;20033;-77
2021/08/18 04:04:27;;;;;;;8.60;4.30;;;;;;;;;;5014107;28;20029;-77
2021/08/18 04:06:52;;;;;;;8.27;4.70;;;;;;;;;;5027867;28;20660;-77
2021/08/18 04:09:18;;;;;;;5.68;4.18;;;;;;;;;;5033440;28;20116;-78
2021/08/18 04:11:43;;;;;;;9.80;4.47;;;;;;;;;;4995190;28;20041;-77
2021/08/18 04:14:11;;;;;;;10.10;4.50;;;;;;;;;;5010263;28;20075;-77
2021/08/18 04:16:37;;;;;;;10.82;4.65;;;;;;;;;;5029662;28;20038;-78
2021/08/18 04:19:03;;;;;;;8.30;5.05;;;;;;;;;;5032114;28;20045;-78
2021/08/18 04:21:29;;;;;;;7.60;4.50;;;;;;;;;;5033117;28;20111;-78
2021/08/18 04:23:54;;;;;;;12.48;5.47;;;;;;;;;;5031157;28;20439;-78
2021/08/18 04:26:20;;;;;;;6.93;4.68;;;;;;;;;;5008117;28;20060;-78
2021/08/18 04:28:46;;;;;;;6.80;4.88;;;;;;;;;;5031443;28;20034;-78
2021/08/18 04:31:11;;;;;;;7.68;4.80;;;;;;;;;;5012997;28;20029;-78
2021/08/18 04:33:37;;;;;;;7.53;4.53;;;;;;;;;;5031126;28;20385;-78
2021/08/18 04:36:02;;;;;;;7.88;5.18;;;;;;;;;;5030587;28;20053;-78
2021/08/18 04:38:28;;;;;;;10.20;5.70;;;;;;;;;;5027783;28;20091;-78
2021/08/18 04:40:53;;;;;;;10.52;5.57;;;;;;;;;;4998021;28;20428;-78
2021/08/18 04:43:19;;;;;;;7.43;5.28;;;;;;;;;;5030496;28;20044;-78
2021/08/18 04:45:44;;;;;;;9.38;6.07;;;;;;;;;;5030591;28;20029;-78
2021/08/18 04:48:11;;;;;;;11.00;6.53;;;;;;;;;;5031930;28;20034;-78
2021/08/18 04:50:36;;;;;;;9.45;5.65;;;;;;;;;;5027633;28;20033;-78
2021/08/18 04:53:11;;;;;;;9.80;5.88;;;;;;;;;;5028295;28;20037;-77
2021/08/18 04:55:38;;;;;;;8.20;5.88;;;;;;;;;;5033947;28;20025;-77
2021/08/18 04:58:04;;;;;;;7.55;5.75;;;;;;;;;;5026279;28;20034;-78
2021/08/18 05:00:29;;;;;;;8.52;5.93;;;;;;;;;;5026987;28;20051;-79
2021/08/18 05:02:55;;;;;;;7.00;5.30;;;;;;;;;;5029709;28;20033;-79
2021/08/18 05:05:20;;;;;;;7.15;5.65;;;;;;;;;;5036503;28;20049;-79
2021/08/18 05:07:46;;;;;;;8.07;6.22;;;;;;;;;;5034706;28;20033;-79
2021/08/18 05:10:11;;;;;;;8.77;6.32;;;;;;;;;;5034540;28;20029;-79
2021/08/18 05:12:38;;;;;;;8.38;6.32;;;;;;;;;;5036376;28;20037;-79
2021/08/18 05:15:05;;;;;;;8.65;6.10;;;;;;;;;;5029689;28;21630;-79
2021/08/18 05:17:30;;;;;;;9.10;6.10;;;;;;;;;;5031387;28;20061;-79
2021/08/18 05:19:56;;;;;;;8.48;5.82;;;;;;;;;;5018432;28;20033;-79
2021/08/18 05:22:21;;;;;;;8.82;6.13;;;;;;;;;;5028750;28;20040;-79
2021/08/18 05:24:46;;;;;;;8.55;5.65;;;;;;;;;;5031824;28;20034;-79
2021/08/18 05:27:13;;;;;;;9.77;5.68;;;;;;;;;;5027871;28;20899;-79
2021/08/18 05:29:38;;;;;;;7.72;5.30;;;;;;;;;;5025906;28;20029;-79
2021/08/18 05:32:04;;;;;;;8.10;4.60;;;;;;;;;;5027620;28;20728;-79
2021/08/18 05:34:29;;;;;;;7.82;4.97;;;;;;;;;;5033095;28;20026;-79
2021/08/18 05:36:55;;;;;;;7.93;4.45;;;;;;;;;;5013140;28;20041;-79
2021/08/18 05:39:20;;;;;;;10.02;4.75;;;;;;;;;;5043387;28;20116;-79
2021/08/18 05:41:45;;;;;;;7.00;4.50;;;;;;;;;;5029705;28;20482;-79
2021/08/18 05:44:11;;;;;;;9.40;4.68;;;;;;;;;;5014821;28;20033;-79
2021/08/18 05:46:36;;;;;;;6.65;4.55;;;;;;;;;;5029536;28;20045;-79
2021/08/18 05:49:02;;;;;;;8.15;4.63;;;;;;;;;;5012287;28;20033;-79
2021/08/18 05:51:27;;;;;;;7.40;4.65;;;;;;;;;;5016013;28;20112;-79
2021/08/18 05:53:52;;;;;;;9.23;4.70;;;;;;;;;;5029301;28;20045;-79
2021/08/18 05:56:19;;;;;;;7.82;4.85;;;;;;;;;;5033863;28;20029;-78
2021/08/18 05:58:44;;;;;;;6.18;4.78;;;;;;;;;;5027520;28;20033;-79
2021/08/18 06:01:10;;;;;;;9.30;4.32;;;;;;;;;;5034211;28;20032;-78
2021/08/18 06:03:36;;;;;;;11.07;4.82;;;;;;;;;;5016801;28;20480;-78
2021/08/18 06:06:02;;;;;;;7.97;4.50;;;;;;;;;;5031098;28;20384;-78
2021/08/18 06:08:27;;;;;;;7.20;4.55;;;;;;;;;;5029587;28;20098;-78
2021/08/18 06:10:53;;;;;;;8.10;5.32;;;;;;;;;;5029787;28;20026;-78
2021/08/18 06:13:18;;;;;;;9.73;4.10;;;;;;;;;;5011009;28;20022;-79
2021/08/18 06:15:44;;;;;;;6.25;4.22;;;;;;;;;;5031015;28;20041;-79
2021/08/18 06:18:09;;;;;;;9.20;5.13;;;;;;;;;;5030176;28;20025;-79
2021/08/18 06:20:35;;;;;;;11.07;5.95;;;;;;;;;;5018635;28;20182;-79
2021/08/18 06:23:01;;;;;;;10.10;5.88;;;;;;;;;;5028706;28;20029;-79
2021/08/18 06:25:26;;;;;;;10.43;6.60;;;;;;;;;;5027285;28;20036;-79
2021/08/18 06:27:52;;;;;;;7.85;5.57;;;;;;;;;;5026365;28;20032;-78
2021/08/18 06:30:17;;;;;;;10.35;6.00;;;;;;;;;;4993538;28;20116;-78
2021/08/18 06:32:43;;;;;;;8.93;5.78;;;;;;;;;;5014896;28;20485;-79
2021/08/18 06:35:09;;;;;;;15.00;6.63;;;;;;;;;;5013369;28;20037;-79
2021/08/18 06:37:34;;;;;;;9.82;6.68;;;;;;;;;;5031372;28;20486;-78
2021/08/18 06:39:59;;;;;;;12.90;6.22;;;;;;;;;;5026899;28;20038;-78
2021/08/18 06:42:26;;;;;;;10.68;6.45;;;;;;;;;;5029841;28;20029;-78
2021/08/18 06:44:51;;;;;;;10.93;6.68;;;;;;;;;;5029884;28;20028;-78
2021/08/18 06:47:17;;;;;;;10.82;7.30;;;;;;;;;;5014774;28;20060;-79
2021/08/18 06:49:44;;;;;;;9.10;6.53;;;;;;;;;;5026693;28;20033;-78
2021/08/18 06:52:09;;;;;;;17.02;7.53;;;;;;;;;;5031587;28;20044;-78
2021/08/18 06:54:35;;;;;;;15.23;7.32;;;;;;;;;;5031905;28;20034;-78
2021/08/18 06:57:00;;;;;;;12.25;7.40;;;;;;;;;;4995314;28;20459;-78
2021/08/18 06:59:26;;;;;;;9.23;7.50;;;;;;;;;;5009816;28;20111;-79
2021/08/18 07:01:51;;;;;;;12.75;8.18;;;;;;;;;;5026645;28;20037;-78
2021/08/18 07:04:17;;;;;;;9.90;7.65;;;;;;;;;;5030369;28;20030;-78
2021/08/18 07:06:42;;;;;;;10.05;7.60;;;;;;;;;;5028057;28;20034;-79
2021/08/18 07:09:08;;;;;;;11.13;7.45;;;;;;;;;;5017519;28;20822;-79
2021/08/18 07:11:33;;;;;;;10.57;7.60;;;;;;;;;;5029536;28;20112;-78
2021/08/18 07:14:02;;;;;;;12.77;8.43;;;;;;;;;;5015959;28;20057;-78
2021/08/18 07:16:36;;;;;;;11.85;8.60;;;;;;;;;;5026893;28;20490;-79
2021/08/18 07:19:03;;;;;;;14.57;8.50;;;;;;;;;;5030253;28;20377;-79
2021/08/18 07:21:28;;;;;;;11.15;8.60;;;;;;;;;;5032851;28;20033;-79
2021/08/18 07:23:55;;;;;;;11.82;9.23;;;;;;;;;;5028297;28;20149;-79
2021/08/18 07:26:24;;;;;;;12.27;8.80;;;;;;;;;;5030881;28;20037;-78
2021/08/18 07:28:50;;;;;;;11.80;8.40;;;;;;;;;;5031819;28;21415;-78
2021/08/18 07:31:15;;;;;;;14.10;9.25;;;;;;;;;;5028140;28;20080;-78
2021/08/18 07:33:41;;;;;;;11.50;8.80;;;;;;;;;;5028147;28;20392;-79
2021/08/18 07:36:06;;;;;;;12.98;8.77;;;;;;;;;;5024559;28;20036;-78
2021/08/18 07:38:32;;;;;;;11.55;9.52;;;;;;;;;;5012415;28;20140;-78
2021/08/18 07:40:57;;;;;;;13.13;9.27;;;;;;;;;;5033314;28;20525;-79
2021/08/18 07:43:23;;;;;;;12.88;9.50;;;;;;;;;;5035028;28;20053;-78
2021/08/18 07:45:48;;;;;;;10.65;8.90;;;;;;;;;;5025044;28;20061;-78
2021/08/18 07:48:14;;;;;;;11.10;7.88;;;;;;;;;;5029544;28;20021;-78
2021/08/18 07:50:39;;;;;;;10.98;8.25;;;;;;;;;;5032203;28;20045;-79
2021/08/18 07:53:05;;;;;;;10.77;8.13;;;;;;;;;;5033720;28;20069;-79
2021/08/18 07:55:30;;;;;;;11.07;7.97;;;;;;;;;;5031546;28;20028;-79
2021/08/18 07:57:56;;;;;;;13.88;9.70;;;;;;;;;;5019401;28;20034;-79
2021/08/18 08:00:22;;;;;;;13.02;9.95;;;;;;;;;;5015770;28;20034;-79
2021/08/18 08:02:47;;;;;;;11.38;9.38;;;;;;;;;;5025997;28;20025;-78
2021/08/18 08:05:17;;;;;;;13.50;10.00;;;;;;;;;;5035947;28;20048;-79
2021/08/18 08:07:44;;;;;;;12.85;9.52;;;;;;;;;;5039260;28;20034;-79
2021/08/18 08:10:10;;;;;;;13.05;10.30;;;;;;;;;;5039913;28;20037;-79
2021/08/18 08:12:37;;;;;;;15.27;9.77;;;;;;;;;;5038485;28;20029;-79
2021/08/18 08:15:05;;;;;;;11.75;9.70;;;;;;;;;;5037967;28;20074;-79
2021/08/18 08:17:30;;;;;;;14.02;10.88;;;;;;;;;;5040131;28;20036;-79
2021/08/18 08:19:56;;;;;;;13.13;9.65;;;;;;;;;;5037984;28;20366;-79
2021/08/18 08:22:21;;;;;;;15.27;11.23;;;;;;;;;;5037091;28;20048;-79
2021/08/18 08:24:47;;;;;;;16.08;10.45;;;;;;;;;;5019470;28;20037;-79
2021/08/18 08:27:12;;;;;;;14.32;10.55;;;;;;;;;;5024252;28;21811;-78
2021/08/18 08:29:38;;;;;;;13.57;10.57;;;;;;;;;;5026692;28;20072;-78
2021/08/18 08:32:04;;;;;;;14.38;11.65;;;;;;;;;;5010546;28;20472;-79
2021/08/18 08:34:29;;;;;;;16.52;11.07;;;;;;;;;;5030300;28;20481;-78
2021/08/18 08:36:54;;;;;;;13.75;10.48;;;;;;;;;;5029000;28;20033;-78
2021/08/18 08:39:20;;;;;;;14.48;10.00;;;;;;;;;;5032429;28;20040;-78
2021/08/18 08:41:48;;;;;;;13.77;10.90;;;;;;;;;;5011250;28;20068;-78
2021/08/18 08:44:19;;;;;;;14.27;10.57;;;;;;;;;;5013185;28;20056;-78
2021/08/18 08:46:46;;;;;;;14.90;11.38;;;;;;;;;;5028733;28;20030;-78
2021/08/18 08:49:12;;;;;;;13.82;11.15;;;;;;;;;;5034261;28;20021;-79
2021/08/18 08:51:37;;;;;;;14.82;11.27;;;;;;;;;;5028399;28;20105;-79
2021/08/18 08:54:03;;;;;;;13.27;10.85;;;;;;;;;;5034367;28;20477;-79
2021/08/18 08:56:28;;;;;;;13.98;10.75;;;;;;;;;;5017261;28;20025;-78
2021/08/18 08:58:54;;;;;;;16.08;11.77;;;;;;;;;;5036974;28;20121;-79
2021/08/18 09:01:20;;;;;;;13.65;11.02;;;;;;;;;;5014805;28;20038;-79
2021/08/18 09:03:46;;;;;;;18.48;11.63;;;;;;;;;;5021034;28;20536;-78
2021/08/18 09:06:18;;;;;;;14.30;11.43;;;;;;;;;;5040929;28;20112;-79
2021/08/18 09:08:52;;;;;;;14.73;12.33;;;;;;;;;;5031878;28;20029;-79
2021/08/18 09:11:21;;;;;;;14.95;12.18;;;;;;;;;;5024974;28;20275;-79
2021/08/18 09:13:49;;;;;;;14.52;11.45;;;;;;;;;;5041492;28;20136;-79
2021/08/18 09:16:17;;;;;;;17.58;11.95;;;;;;;;;;5038614;28;20056;-79
2021/08/18 09:18:51;;;;;;;16.02;12.20;;;;;;;;;;5039558;28;20371;-79
2021/08/18 09:21:38;;;;;;;14.52;11.38;;;;;;;;;;5039124;28;20061;-79
2021/08/18 09:24:16;;;;;;;15.68;12.32;;;;;;;;;;5038950;28;20034;-78
2021/08/18 09:26:51;;;;;;;14.88;11.45;;;;;;;;;;5033321;28;20052;-78
2021/08/18 09:29:37;;;;;;;15.07;11.90;;;;;;;;;;5035618;28;20029;-78
2021/08/18 09:32:40;;;;;;;17.48;11.65;;;;;;;;;;5025474;28;20032;-78
2021/08/18 09:35:09;;;;;;;15.50;11.20;;;;;;;;;;5050771;28;20032;-78
2021/08/18 09:37:36;;;;;;;15.23;11.52;;;;;;;;;;5036889;28;20087;-78
2021/08/18 09:40:15;;;;;;;13.40;10.88;;;;;;;;;;5037794;28;20120;-78
2021/08/18 09:42:41;;;;;;;15.35;11.55;;;;;;;;;;5034637;28;20044;-78
2021/08/18 09:45:17;;;;;;;15.25;11.00;;;;;;;;;;5015591;28;20033;-78
2021/08/18 09:48:07;;;;;;;13.27;10.90;;;;;;;;;;5037774;28;20026;-78
2021/08/18 09:50:50;;;;;;;13.40;10.60;;;;;;;;;;5031314;28;20037;-78
2021/08/18 09:53:24;;;;;;;17.70;10.82;;;;;;;;;;5037905;28;20021;-78
2021/08/18 09:56:04;;;;;;;10.90;8.38;;;;;;;;;;5036745;28;20028;-78
2021/08/18 09:58:37;;;;;;;11.52;8.25;;;;;;;;;;5009467;28;20139;-78
2021/08/18 10:01:11;;;;;;;11.02;7.70;;;;;;;;;;5038891;28;20029;-78
2021/08/18 10:03:38;;;;;;;8.95;7.43;;;;;;;;;;5038709;28;20491;-78
2021/08/18 10:06:05;;;;;;;10.35;7.88;;;;;;;;;;5031095;28;20033;-78
2021/08/18 10:08:32;;;;;;;8.63;7.70;;;;;;;;;;5032864;28;20038;-78
2021/08/18 10:10:58;;;;;;;9.88;8.40;;;;;;;;;;5036377;28;20025;-78
2021/08/18 10:13:23;;;;;;;8.98;6.85;;;;;;;;;;5030784;28;20051;-78
2021/08/18 10:15:50;;;;;;;7.88;5.70;;;;;;;;;;5032185;28;20034;-78
2021/08/18 10:18:27;;;;;;;7.03;5.28;;;;;;;;;;4998000;28;20030;-78
2021/08/18 10:20:56;;;;;;;5.75;4.90;;;;;;;;;;5021448;28;20485;-78
2021/08/18 10:23:39;;;;;;;7.28;5.28;;;;;;;;;;5024146;28;20039;-78
2021/08/18 10:26:05;;;;;;;7.25;5.80;;;;;;;;;;5033973;28;20032;-78
2021/08/18 10:29:01;;;;;;;7.93;5.28;;;;;;;;;;5032649;28;20560;-78
2021/08/18 10:31:42;;;;;;;6.47;5.22;;;;;;;;;;5026944;28;20030;-77
2021/08/18 10:34:25;;;;;;;7.25;5.47;;;;;;;;;;5027112;28;20032;-77
2021/08/18 10:36:56;;;;;;;8.05;5.28;;;;;;;;;;5023138;28;20042;-78
2021/08/18 10:39:51;;;;;;;7.72;5.45;;;;;;;;;;5031525;28;20041;-78
2021/08/18 10:42:37;;;;;;;6.45;5.22;;;;;;;;;;5033107;28;20033;-78
2021/08/18 10:45:24;;;;;;;6.88;5.68;;;;;;;;;;5032619;28;20055;-78
2021/08/18 10:47:51;;;;;;;5.93;4.63;;;;;;;;;;5026637;28;20076;-78
2021/08/18 10:50:23;;;;;;;5.40;4.20;;;;;;;;;;5009925;28;20051;-77
2021/08/18 10:52:53;;;;;;;6.93;5.07;;;;;;;;;;5026556;28;20395;-78
2021/08/18 10:55:24;;;;;;;7.55;5.55;;;;;;;;;;4996277;28;20395;-78
2021/08/18 10:58:10;;;;;;;8.63;6.53;;;;;;;;;;5027383;28;20044;-78
2021/08/18 11:00:38;;;;;;;10.55;8.10;;;;;;;;;;5016114;28;20073;-78
2021/08/18 11:03:13;;;;;;;10.38;8.45;;;;;;;;;;5029776;28;20564;-78
2021/08/18 11:05:38;;;;;;;12.23;9.23;;;;;;;;;;5027435;28;20061;-78
2021/08/18 11:08:06;;;;;;;16.42;9.93;;;;;;;;;;5031806;28;20068;-78
2021/08/18 11:10:42;;;;;;;14.25;11.02;;;;;;;;;;5027073;28;20045;-78
2021/08/18 11:13:12;;;;;;;14.57;10.68;;;;;;;;;;5016715;28;20048;-78
2021/08/18 11:15:40;;;;;;;13.70;11.40;;;;;;;;;;5022389;28;20037;-77
2021/08/18 11:18:07;;;;;;;15.00;11.20;;;;;;;;;;5022749;28;20068;-77
2021/08/18 11:20:32;;;;;;;16.42;10.70;;;;;;;;;;5025882;28;20079;-77
2021/08/18 11:22:59;;;;;;;13.77;11.07;;;;;;;;;;5020111;28;20437;-77
2021/08/18 11:25:26;;;;;;;15.35;11.30;;;;;;;;;;5021018;28;20116;-78
2021/08/18 11:27:56;;;;;;;15.48;11.45;;;;;;;;;;5024199;28;20041;-77
2021/08/18 11:30:32;;;;;;;15.23;11.18;;;;;;;;;;5004347;28;20042;-77
2021/08/18 11:33:20;;;;;;;15.48;11.63;;;;;;;;;;5029681;28;20120;-77
2021/08/18 11:35:46;;;;;;;13.52;11.27;;;;;;;;;;5023625;28;20103;-76
2021/08/18 11:38:12;;;;;;;14.98;10.93;;;;;;;;;;5019370;28;20033;-77
2021/08/18 11:40:39;;;;;;;12.05;10.52;;;;;;;;;;5023845;28;20025;-77
2021/08/18 11:43:05;;;;;;;16.25;10.77;;;;;;;;;;5030473;28;20911;-77
2021/08/18 11:45:38;;;;;;;12.07;9.60;;;;;;;;;;5026838;28;20053;-77
2021/08/18 11:48:08;;;;;;;14.30;10.48;;;;;;;;;;5026237;28;20029;-77
2021/08/18 11:50:35;;;;;;;15.30;9.88;;;;;;;;;;5024000;28;20041;-77
2021/08/18 11:53:04;;;;;;;12.63;10.15;;;;;;;;;;5029968;28;20042;-77
2021/08/18 11:55:30;;;;;;;13.50;9.82;;;;;;;;;;5009636;28;22105;-80
2021/08/18 11:58:06;;;;;;;13.73;10.02;;;;;;;;;;5023693;28;20060;-77
2021/08/18 12:00:32;;;;;;;11.27;8.93;;;;;;;;;;5020556;28;20136;-76
2021/08/18 12:02:59;;;;;;;12.63;9.63;;;;;;;;;;5025308;28;20037;-76
2021/08/18 12:05:30;;;;;;;13.18;10.57;;;;;;;;;;5024219;28;20021;-77
2021/08/18 12:08:14;;;;;;;13.73;10.65;;;;;;;;;;5021776;28;20052;-77
2021/08/18 12:10:42;;;;;;;14.68;10.45;;;;;;;;;;5021947;28;20578;-77
2021/08/18 12:13:08;;;;;;;14.10;10.30;;;;;;;;;;5008746;28;20033;-77
2021/08/18 12:15:42;;;;;;;16.02;10.85;;;;;;;;;;5024921;28;20385;-77
2021/08/18 12:18:46;;;;;;;16.25;11.38;;;;;;;;;;5010424;28;20048;-77
2021/08/18 12:21:26;;;;;;;14.57;10.75;;;;;;;;;;5004382;28;20227;-76
2021/08/18 12:23:54;;;;;;;14.88;10.52;;;;;;;;;;5007663;28;20041;-76
2021/08/18 12:26:38;;;;;;;17.02;10.75;;;;;;;;;;5017766;28;20110;-77
2021/08/18 12:29:05;;;;;;;16.05;10.13;;;;;;;;;;5022568;28;20081;-77
2021/08/18 12:31:54;;;;;;;11.00;9.35;;;;;;;;;;5030685;28;20029;-77
2021/08/18 12:34:46;;;;;;;12.20;9.60;;;;;;;;;;5009023;28;20033;-77
2021/08/18 12:37:18;;;;;;;12.55;8.98;;;;;;;;;;5026945;28;20041;-77
2021/08/18 12:39:55;;;;;;;12.43;9.13;;;;;;;;;;5019762;28;20041;-77
2021/08/18 12:42:27;;;;;;;11.50;9.10;;;;;;;;;;5029255;28;20037;-77
2021/08/18 12:45:03;;;;;;;12.75;10.07;;;;;;;;;;5019247;28;20108;-77
2021/08/18 12:47:37;;;;;;;13.30;10.05;;;;;;;;;;5028088;28;20113;-77
2021/08/18 12:50:05;;;;;;;13.63;9.68;;;;;;;;;;5028142;28;20061;-77
2021/08/18 12:52:30;;;;;;;12.30;8.88;;;;;;;;;;5022798;28;20475;-77
2021/08/18 12:54:56;;;;;;;13.57;10.23;;;;;;;;;;5028020;28;20033;-77
2021/08/18 12:57:22;;;;;;;12.45;9.60;;;;;;;;;;5011773;28;20091;-77
2021/08/18 12:59:47;;;;;;;9.80;7.95;;;;;;;;;;5017528;28;20037;-77
2021/08/18 13:02:13;;;;;;;11.50;7.50;;;;;;;;;;5027487;28;20057;-77
2021/08/18 13:04:38;;;;;;;10.30;6.60;;;;;;;;;;5008889;28;20061;-77
2021/08/18 13:07:05;;;;;;;10.75;6.90;;;;;;;;;;5016043;28;20061;-77
2021/08/18 13:09:32;;;;;;;9.65;7.13;;;;;;;;;;5018017;28;20669;-77
2021/08/18 13:12:00;;;;;;;11.38;7.55;;;;;;;;;;5023175;28;20037;-76
2021/08/18 13:14:25;;;;;;;9.65;7.20;;;;;;;;;;5024311;28;20049;-77
2021/08/18 13:16:50;;;;;;;10.40;8.05;;;;;;;;;;5025718;28;20041;-79
2021/08/18 13:19:17;;;;;;;12.20;8.30;;;;;;;;;;5026784;28;20049;-79
2021/08/18 13:21:42;;;;;;;10.27;7.97;;;;;;;;;;5009095;28;20049;-78
2021/08/18 13:24:08;;;;;;;10.95;8.15;;;;;;;;;;5027519;28;20029;-78
2021/08/18 13:26:33;;;;;;;13.18;7.97;;;;;;;;;;5021304;28;20026;-78
2021/08/18 13:28:59;;;;;;;8.23;6.85;;;;;;;;;;5026913;28;20033;-79
2021/08/18 13:31:25;;;;;;;11.63;6.90;;;;;;;;;;5027594;28;20365;-79
2021/08/18 13:33:51;;;;;;;9.43;7.10;;;;;;;;;;5009513;28;20053;-79
2021/08/18 13:36:16;;;;;;;9.23;6.28;;;;;;;;;;5025210;28;20064;-79
2021/08/18 13:38:41;;;;;;;9.70;5.78;;;;;;;;;;5003893;28;20029;-79
2021/08/18 13:41:07;;;;;;;7.70;5.47;;;;;;;;;;5012620;28;20029;-79
2021/08/18 13:43:33;;;;;;;7.32;5.35;;;;;;;;;;5026799;28;20689;-78
2021/08/18 13:45:58;;;;;;;7.68;4.85;;;;;;;;;;4989418;28;20040;-79
2021/08/18 13:48:24;;;;;;;7.70;4.90;;;;;;;;;;5022847;28;20064;-79
2021/08/18 13:50:50;;;;;;;8.23;4.85;;;;;;;;;;5023955;28;20037;-79
2021/08/18 13:53:15;;;;;;;8.70;4.95;;;;;;;;;;5023688;28;20056;-79
2021/08/18 13:55:42;;;;;;;6.38;4.93;;;;;;;;;;5025864;28;20509;-79
2021/08/18 13:58:07;;;;;;;7.22;4.40;;;;;;;;;;5019737;28;20112;-79
2021/08/18 14:00:33;;;;;;;7.57;5.13;;;;;;;;;;5029400;28;20184;-79
2021/08/18 14:02:59;;;;;;;7.68;5.07;;;;;;;;;;5026982;28;20033;-79
2021/08/18 14:05:24;;;;;;;7.13;4.43;;;;;;;;;;5009593;28;20393;-79
2021/08/18 14:07:50;;;;;;;7.03;4.65;;;;;;;;;;5023848;28;20033;-79
2021/08/18 14:10:16;;;;;;;6.43;4.60;;;;;;;;;;5023481;28;20041;-79
2021/08/18 14:12:41;;;;;;;8.23;4.40;;;;;;;;;;5027326;28;20040;-79
2021/08/18 14:15:07;;;;;;;7.65;4.40;;;;;;;;;;5006797;28;20046;-79
2021/08/18 14:17:32;;;;;;;5.85;4.15;;;;;;;;;;4989616;28;20120;-79
2021/08/18 14:19:58;;;;;;;5.43;4.00;;;;;;;;;;5006318;28;20044;-79
2021/08/18 14:22:23;;;;;;;5.80;4.00;;;;;;;;;;5037173;28;20037;-79
2021/08/18 14:24:49;;;;;;;5.63;4.07;;;;;;;;;;5026027;28;20037;-79
2021/08/18 14:27:14;;;;;;;6.38;3.70;;;;;;;;;;5011875;28;20021;-79
2021/08/18 14:29:39;;;;;;;6.72;4.40;;;;;;;;;;5024528;28;20041;-80
2021/08/18 14:32:06;;;;;;;4.82;3.70;;;;;;;;;;5009952;28;20034;-79
2021/08/18 14:34:32;;;;;;;6.88;3.83;;;;;;;;;;5000878;28;20843;-79
2021/08/18 14:36:58;;;;;;;5.88;4.00;;;;;;;;;;5027340;28;20663;-78